sensor_id;sensor_type;location;lat;lon;timestamp;P1;durP1;ratioP1;P2;durP2;ratioP2
63818;SDS011;49970;54.976;73.248;2023-04-03T00:01:26;48.17;;;14.38;;
63818;SDS011;49970;54.976;73.248;2023-04-03T00:03:58;46.50;;;16.35;;
63818;SDS011;49970;54.976;73.248;2023-04-03T00:06:24;37.70;;;12.98;;
63818;SDS011;49970;54.976;73.248;2023-04-03T00:09:01;39.70;;;14.80;;
63818;SDS011;49970;54.976;73.248;2023-04-03T00:11:27;57.53;;;16.50;;
63818;SDS011;49970;54.976;73.248;2023-04-03T00:13:53;43.90;;;15.00;;
63818;SDS011;49970;54.976;73.248;2023-04-03T00:16:24;55.50;;;18.25;;
63818;SDS011;49970;54.976;73.248;2023-04-03T00:18:50;46.80;;;15.40;;
63818;SDS011;49970;54.976;73.248;2023-04-03T00:21:16;71.70;;;19.02;;
63818;SDS011;49970;54.976;73.248;2023-04-03T00:23:53;80.35;;;27.73;;
63818;SDS011;49970;54.976;73.248;2023-04-03T00:26:19;93.15;;;35.65;;
63818;SDS011;49970;54.976;73.248;2023-04-03T00:28:51;80.63;;;28.48;;
63818;SDS011;49970;54.976;73.248;2023-04-03T00:31:17;58.75;;;19.65;;
63818;SDS011;49970;54.976;73.248;2023-04-03T00:33:43;67.70;;;20.48;;
63818;SDS011;49970;54.976;73.248;2023-04-03T00:36:10;58.92;;;19.15;;
63818;SDS011;49970;54.976;73.248;2023-04-03T00:38:38;66.22;;;20.90;;
63818;SDS011;49970;54.976;73.248;2023-04-03T00:41:09;62.00;;;23.13;;
63818;SDS011;49970;54.976;73.248;2023-04-03T00:43:35;51.72;;;19.73;;
63818;SDS011;49970;54.976;73.248;2023-04-03T00:46:02;59.55;;;19.75;;
63818;SDS011;49970;54.976;73.248;2023-04-03T00:48:30;71.45;;;24.02;;
63818;SDS011;49970;54.976;73.248;2023-04-03T00:50:59;57.03;;;17.48;;
63818;SDS011;49970;54.976;73.248;2023-04-03T00:53:33;50.80;;;18.50;;
63818;SDS011;49970;54.976;73.248;2023-04-03T00:56:04;50.30;;;15.38;;
63818;SDS011;49970;54.976;73.248;2023-04-03T00:58:39;34.17;;;13.45;;
63818;SDS011;49970;54.976;73.248;2023-04-03T01:01:24;28.90;;;12.15;;
63818;SDS011;49970;54.976;73.248;2023-04-03T01:03:52;34.97;;;11.73;;
63818;SDS011;49970;54.976;73.248;2023-04-03T01:06:28;42.00;;;11.93;;
63818;SDS011;49970;54.976;73.248;2023-04-03T01:09:04;33.58;;;11.48;;
63818;SDS011;49970;54.976;73.248;2023-04-03T01:11:31;36.78;;;11.35;;
63818;SDS011;49970;54.976;73.248;2023-04-03T01:13:57;30.08;;;11.13;;
63818;SDS011;49970;54.976;73.248;2023-04-03T01:16:24;29.02;;;12.95;;
63818;SDS011;49970;54.976;73.248;2023-04-03T01:18:56;31.75;;;14.93;;
63818;SDS011;49970;54.976;73.248;2023-04-03T01:21:38;85.80;;;23.88;;
63818;SDS011;49970;54.976;73.248;2023-04-03T01:24:27;83.22;;;23.95;;
63818;SDS011;49970;54.976;73.248;2023-04-03T01:27:06;54.95;;;19.35;;
63818;SDS011;49970;54.976;73.248;2023-04-03T01:29:36;85.63;;;24.45;;
63818;SDS011;49970;54.976;73.248;2023-04-03T01:32:07;83.55;;;27.58;;
63818;SDS011;49970;54.976;73.248;2023-04-03T01:34:34;71.00;;;24.02;;
63818;SDS011;49970;54.976;73.248;2023-04-03T01:37:00;50.63;;;21.85;;
63818;SDS011;49970;54.976;73.248;2023-04-03T01:39:27;49.88;;;19.80;;
63818;SDS011;49970;54.976;73.248;2023-04-03T01:42:03;47.33;;;23.05;;
63818;SDS011;49970;54.976;73.248;2023-04-03T01:44:34;66.70;;;18.83;;
63818;SDS011;49970;54.976;73.248;2023-04-03T01:47:11;45.85;;;17.98;;
63818;SDS011;49970;54.976;73.248;2023-04-03T01:49:49;37.25;;;17.75;;
63818;SDS011;49970;54.976;73.248;2023-04-03T01:52:15;56.03;;;21.92;;
63818;SDS011;49970;54.976;73.248;2023-04-03T01:54:41;45.42;;;17.50;;
63818;SDS011;49970;54.976;73.248;2023-04-03T01:57:08;51.80;;;19.17;;
63818;SDS011;49970;54.976;73.248;2023-04-03T01:59:35;31.30;;;13.40;;
63818;SDS011;49970;54.976;73.248;2023-04-03T02:02:01;29.42;;;13.20;;
63818;SDS011;49970;54.976;73.248;2023-04-03T02:04:31;26.77;;;9.82;;
63818;SDS011;49970;54.976;73.248;2023-04-03T02:06:57;38.50;;;15.57;;
63818;SDS011;49970;54.976;73.248;2023-04-03T02:09:35;38.25;;;12.65;;
63818;SDS011;49970;54.976;73.248;2023-04-03T02:12:03;33.67;;;13.25;;
63818;SDS011;49970;54.976;73.248;2023-04-03T02:14:30;22.98;;;10.00;;
63818;SDS011;49970;54.976;73.248;2023-04-03T02:16:56;28.73;;;10.02;;
63818;SDS011;49970;54.976;73.248;2023-04-03T02:19:22;27.10;;;8.55;;
63818;SDS011;49970;54.976;73.248;2023-04-03T02:21:49;34.17;;;8.73;;
63818;SDS011;49970;54.976;73.248;2023-04-03T02:24:25;25.90;;;9.35;;
63818;SDS011;49970;54.976;73.248;2023-04-03T02:26:51;25.23;;;10.15;;
63818;SDS011;49970;54.976;73.248;2023-04-03T02:29:18;26.92;;;9.00;;
63818;SDS011;49970;54.976;73.248;2023-04-03T02:31:45;19.38;;;9.07;;
63818;SDS011;49970;54.976;73.248;2023-04-03T02:34:11;26.45;;;8.70;;
63818;SDS011;49970;54.976;73.248;2023-04-03T02:36:37;28.98;;;8.77;;
63818;SDS011;49970;54.976;73.248;2023-04-03T02:39:07;15.23;;;7.32;;
63818;SDS011;49970;54.976;73.248;2023-04-03T02:41:34;26.88;;;7.68;;
63818;SDS011;49970;54.976;73.248;2023-04-03T02:44:03;13.90;;;6.07;;
63818;SDS011;49970;54.976;73.248;2023-04-03T02:46:31;34.58;;;5.30;;
63818;SDS011;49970;54.976;73.248;2023-04-03T02:48:58;18.40;;;4.43;;
63818;SDS011;49970;54.976;73.248;2023-04-03T02:51:31;11.27;;;3.85;;
63818;SDS011;49970;54.976;73.248;2023-04-03T02:54:07;39.30;;;3.70;;
63818;SDS011;49970;54.976;73.248;2023-04-03T02:56:37;11.00;;;4.40;;
63818;SDS011;49970;54.976;73.248;2023-04-03T02:59:04;14.70;;;3.28;;
63818;SDS011;49970;54.976;73.248;2023-04-03T03:01:32;7.22;;;3.47;;
63818;SDS011;49970;54.976;73.248;2023-04-03T03:03:59;16.95;;;3.80;;
63818;SDS011;49970;54.976;73.248;2023-04-03T03:06:26;13.77;;;3.35;;
63818;SDS011;49970;54.976;73.248;2023-04-03T03:08:53;13.73;;;3.50;;
63818;SDS011;49970;54.976;73.248;2023-04-03T03:11:20;6.57;;;3.72;;
63818;SDS011;49970;54.976;73.248;2023-04-03T03:13:46;8.70;;;4.03;;
63818;SDS011;49970;54.976;73.248;2023-04-03T03:16:20;19.67;;;4.75;;
63818;SDS011;49970;54.976;73.248;2023-04-03T03:18:57;13.23;;;3.53;;
63818;SDS011;49970;54.976;73.248;2023-04-03T03:21:23;17.13;;;3.80;;
63818;SDS011;49970;54.976;73.248;2023-04-03T03:23:59;11.45;;;4.53;;
63818;SDS011;49970;54.976;73.248;2023-04-03T03:26:26;16.17;;;4.32;;
63818;SDS011;49970;54.976;73.248;2023-04-03T03:28:54;38.22;;;4.85;;
63818;SDS011;49970;54.976;73.248;2023-04-03T03:31:20;10.43;;;3.78;;
63818;SDS011;49970;54.976;73.248;2023-04-03T03:33:46;12.40;;;4.07;;
63818;SDS011;49970;54.976;73.248;2023-04-03T03:36:13;16.48;;;3.60;;
63818;SDS011;49970;54.976;73.248;2023-04-03T03:38:39;13.93;;;3.78;;
63818;SDS011;49970;54.976;73.248;2023-04-03T03:41:05;12.57;;;3.70;;
63818;SDS011;49970;54.976;73.248;2023-04-03T03:43:37;11.07;;;3.53;;
63818;SDS011;49970;54.976;73.248;2023-04-03T03:46:06;12.45;;;3.40;;
63818;SDS011;49970;54.976;73.248;2023-04-03T03:48:32;16.50;;;4.60;;
63818;SDS011;49970;54.976;73.248;2023-04-03T03:50:59;5.93;;;4.03;;
63818;SDS011;49970;54.976;73.248;2023-04-03T03:53:29;8.25;;;3.15;;
63818;SDS011;49970;54.976;73.248;2023-04-03T03:56:00;23.55;;;4.07;;
63818;SDS011;49970;54.976;73.248;2023-04-03T03:58:29;8.18;;;3.38;;
63818;SDS011;49970;54.976;73.248;2023-04-03T04:01:06;16.08;;;3.60;;
63818;SDS011;49970;54.976;73.248;2023-04-03T04:03:35;10.05;;;3.40;;
63818;SDS011;49970;54.976;73.248;2023-04-03T04:06:03;7.30;;;3.08;;
63818;SDS011;49970;54.976;73.248;2023-04-03T04:08:29;9.75;;;3.85;;
63818;SDS011;49970;54.976;73.248;2023-04-03T04:10:56;7.32;;;3.92;;
63818;SDS011;49970;54.976;73.248;2023-04-03T04:13:27;13.80;;;4.30;;
63818;SDS011;49970;54.976;73.248;2023-04-03T04:16:03;15.88;;;4.68;;
63818;SDS011;49970;54.976;73.248;2023-04-03T04:18:32;16.20;;;4.10;;
63818;SDS011;49970;54.976;73.248;2023-04-03T04:20:58;12.93;;;4.50;;
63818;SDS011;49970;54.976;73.248;2023-04-03T04:23:26;8.50;;;4.22;;
63818;SDS011;49970;54.976;73.248;2023-04-03T04:25:52;12.70;;;4.60;;
63818;SDS011;49970;54.976;73.248;2023-04-03T04:28:31;20.35;;;3.67;;
63818;SDS011;49970;54.976;73.248;2023-04-03T04:30:59;11.13;;;3.65;;
63818;SDS011;49970;54.976;73.248;2023-04-03T04:33:26;18.95;;;3.70;;
63818;SDS011;49970;54.976;73.248;2023-04-03T04:36:03;18.13;;;3.60;;
63818;SDS011;49970;54.976;73.248;2023-04-03T04:38:41;17.17;;;3.80;;
63818;SDS011;49970;54.976;73.248;2023-04-03T04:41:08;10.52;;;3.38;;
63818;SDS011;49970;54.976;73.248;2023-04-03T04:43:35;15.02;;;4.68;;
63818;SDS011;49970;54.976;73.248;2023-04-03T04:48:36;13.25;;;3.72;;
63818;SDS011;49970;54.976;73.248;2023-04-03T04:51:13;5.40;;;3.00;;
63818;SDS011;49970;54.976;73.248;2023-04-03T04:53:46;17.83;;;3.42;;
63818;SDS011;49970;54.976;73.248;2023-04-03T04:56:25;14.40;;;3.50;;
63818;SDS011;49970;54.976;73.248;2023-04-03T04:58:55;10.43;;;3.78;;
63818;SDS011;49970;54.976;73.248;2023-04-03T05:01:22;10.18;;;5.35;;
63818;SDS011;49970;54.976;73.248;2023-04-03T05:04:11;8.38;;;4.60;;
63818;SDS011;49970;54.976;73.248;2023-04-03T05:06:38;16.50;;;4.68;;
63818;SDS011;49970;54.976;73.248;2023-04-03T05:09:16;10.02;;;4.30;;
63818;SDS011;49970;54.976;73.248;2023-04-03T05:11:50;8.25;;;4.35;;
63818;SDS011;49970;54.976;73.248;2023-04-03T05:14:18;18.08;;;3.90;;
63818;SDS011;49970;54.976;73.248;2023-04-03T05:16:45;16.52;;;4.68;;
63818;SDS011;49970;54.976;73.248;2023-04-03T05:19:13;14.23;;;4.57;;
63818;SDS011;49970;54.976;73.248;2023-04-03T05:21:41;17.05;;;3.75;;
63818;SDS011;49970;54.976;73.248;2023-04-03T05:24:13;20.70;;;4.28;;
63818;SDS011;49970;54.976;73.248;2023-04-03T05:26:42;10.02;;;3.95;;
63818;SDS011;49970;54.976;73.248;2023-04-03T05:29:10;14.88;;;4.22;;
63818;SDS011;49970;54.976;73.248;2023-04-03T05:31:37;8.88;;;3.30;;
63818;SDS011;49970;54.976;73.248;2023-04-03T05:34:05;14.02;;;3.80;;
63818;SDS011;49970;54.976;73.248;2023-04-03T05:36:35;22.70;;;3.25;;
63818;SDS011;49970;54.976;73.248;2023-04-03T05:39:05;20.35;;;3.75;;
63818;SDS011;49970;54.976;73.248;2023-04-03T05:41:35;10.40;;;3.25;;
63818;SDS011;49970;54.976;73.248;2023-04-03T05:44:01;9.77;;;3.97;;
63818;SDS011;49970;54.976;73.248;2023-04-03T05:46:27;30.60;;;4.65;;
63818;SDS011;49970;54.976;73.248;2023-04-03T05:48:56;50.13;;;4.82;;
63818;SDS011;49970;54.976;73.248;2023-04-03T05:51:28;32.38;;;4.30;;
63818;SDS011;49970;54.976;73.248;2023-04-03T05:54:20;18.52;;;3.85;;
63818;SDS011;49970;54.976;73.248;2023-04-03T05:56:50;12.82;;;4.00;;
63818;SDS011;49970;54.976;73.248;2023-04-03T05:59:19;21.50;;;4.43;;
63818;SDS011;49970;54.976;73.248;2023-04-03T06:01:49;32.50;;;3.63;;
63818;SDS011;49970;54.976;73.248;2023-04-03T06:04:25;52.22;;;3.97;;
63818;SDS011;49970;54.976;73.248;2023-04-03T06:06:54;15.55;;;3.67;;
63818;SDS011;49970;54.976;73.248;2023-04-03T06:09:34;20.17;;;3.63;;
63818;SDS011;49970;54.976;73.248;2023-04-03T06:12:01;11.63;;;3.72;;
63818;SDS011;49970;54.976;73.248;2023-04-03T06:14:28;29.90;;;4.38;;
63818;SDS011;49970;54.976;73.248;2023-04-03T06:16:56;38.47;;;3.80;;
63818;SDS011;49970;54.976;73.248;2023-04-03T06:19:22;14.63;;;3.45;;
63818;SDS011;49970;54.976;73.248;2023-04-03T06:21:52;35.45;;;4.13;;
63818;SDS011;49970;54.976;73.248;2023-04-03T06:24:18;18.23;;;3.83;;
63818;SDS011;49970;54.976;73.248;2023-04-03T06:26:47;15.57;;;3.65;;
63818;SDS011;49970;54.976;73.248;2023-04-03T06:29:14;16.67;;;3.45;;
63818;SDS011;49970;54.976;73.248;2023-04-03T06:31:40;11.25;;;3.30;;
63818;SDS011;49970;54.976;73.248;2023-04-03T06:34:06;22.88;;;3.58;;
63818;SDS011;49970;54.976;73.248;2023-04-03T06:36:33;64.55;;;4.82;;
63818;SDS011;49970;54.976;73.248;2023-04-03T06:39:00;5.55;;;3.63;;
63818;SDS011;49970;54.976;73.248;2023-04-03T06:41:27;31.48;;;4.35;;
63818;SDS011;49970;54.976;73.248;2023-04-03T06:43:53;14.93;;;3.58;;
63818;SDS011;49970;54.976;73.248;2023-04-03T06:46:22;16.67;;;3.55;;
63818;SDS011;49970;54.976;73.248;2023-04-03T06:48:48;39.70;;;4.50;;
63818;SDS011;49970;54.976;73.248;2023-04-03T06:51:21;30.95;;;4.45;;
63818;SDS011;49970;54.976;73.248;2023-04-03T06:53:49;18.42;;;3.72;;
63818;SDS011;49970;54.976;73.248;2023-04-03T06:56:17;10.30;;;4.05;;
63818;SDS011;49970;54.976;73.248;2023-04-03T06:58:44;21.33;;;4.20;;
63818;SDS011;49970;54.976;73.248;2023-04-03T07:01:11;25.65;;;4.55;;
63818;SDS011;49970;54.976;73.248;2023-04-03T07:03:39;14.98;;;5.03;;
63818;SDS011;49970;54.976;73.248;2023-04-03T07:06:06;42.08;;;5.68;;
63818;SDS011;49970;54.976;73.248;2023-04-03T07:08:35;13.15;;;3.40;;
63818;SDS011;49970;54.976;73.248;2023-04-03T07:11:02;36.50;;;4.65;;
63818;SDS011;49970;54.976;73.248;2023-04-03T07:13:28;18.70;;;5.13;;
63818;SDS011;49970;54.976;73.248;2023-04-03T07:15:55;12.73;;;3.67;;
63818;SDS011;49970;54.976;73.248;2023-04-03T07:18:22;11.25;;;4.20;;
63818;SDS011;49970;54.976;73.248;2023-04-03T07:20:59;30.75;;;4.70;;
63818;SDS011;49970;54.976;73.248;2023-04-03T07:23:25;27.10;;;5.22;;
63818;SDS011;49970;54.976;73.248;2023-04-03T07:25:52;18.08;;;4.50;;
63818;SDS011;49970;54.976;73.248;2023-04-03T07:28:19;17.13;;;4.30;;
63818;SDS011;49970;54.976;73.248;2023-04-03T07:30:59;10.32;;;3.90;;
63818;SDS011;49970;54.976;73.248;2023-04-03T07:33:28;15.45;;;4.10;;
63818;SDS011;49970;54.976;73.248;2023-04-03T07:35:54;19.58;;;5.43;;
63818;SDS011;49970;54.976;73.248;2023-04-03T07:38:20;18.20;;;3.75;;
63818;SDS011;49970;54.976;73.248;2023-04-03T07:40:47;18.42;;;3.90;;
63818;SDS011;49970;54.976;73.248;2023-04-03T07:43:15;22.13;;;4.50;;
63818;SDS011;49970;54.976;73.248;2023-04-03T07:45:43;10.63;;;4.72;;
63818;SDS011;49970;54.976;73.248;2023-04-03T07:48:11;29.98;;;5.20;;
63818;SDS011;49970;54.976;73.248;2023-04-03T07:50:39;11.35;;;4.18;;
63818;SDS011;49970;54.976;73.248;2023-04-03T07:53:06;26.23;;;4.57;;
63818;SDS011;49970;54.976;73.248;2023-04-03T07:55:33;9.90;;;4.35;;
63818;SDS011;49970;54.976;73.248;2023-04-03T07:57:59;24.45;;;5.88;;
63818;SDS011;49970;54.976;73.248;2023-04-03T08:00:31;15.93;;;5.10;;
63818;SDS011;49970;54.976;73.248;2023-04-03T08:02:57;19.42;;;4.35;;
63818;SDS011;49970;54.976;73.248;2023-04-03T08:05:37;8.73;;;4.72;;
63818;SDS011;49970;54.976;73.248;2023-04-03T08:08:05;10.10;;;6.20;;
63818;SDS011;49970;54.976;73.248;2023-04-03T08:10:40;13.05;;;4.82;;
63818;SDS011;49970;54.976;73.248;2023-04-03T08:13:06;19.58;;;4.47;;
63818;SDS011;49970;54.976;73.248;2023-04-03T08:15:33;24.85;;;4.78;;
63818;SDS011;49970;54.976;73.248;2023-04-03T08:17:59;16.65;;;4.07;;
63818;SDS011;49970;54.976;73.248;2023-04-03T08:20:26;14.50;;;4.07;;
63818;SDS011;49970;54.976;73.248;2023-04-03T08:22:53;14.40;;;4.00;;
63818;SDS011;49970;54.976;73.248;2023-04-03T08:25:20;5.88;;;3.83;;
63818;SDS011;49970;54.976;73.248;2023-04-03T08:27:46;5.13;;;3.05;;
63818;SDS011;49970;54.976;73.248;2023-04-03T08:31:36;12.23;;;2.97;;
63818;SDS011;49970;54.976;73.248;2023-04-03T08:35:25;8.27;;;3.30;;
63818;SDS011;49970;54.976;73.248;2023-04-03T08:39:40;24.27;;;3.72;;
63818;SDS011;49970;54.976;73.248;2023-04-03T08:46:08;16.08;;;3.67;;
63818;SDS011;49970;54.976;73.248;2023-04-03T08:51:17;10.23;;;3.65;;
63818;SDS011;49970;54.976;73.248;2023-04-03T08:53:56;38.13;;;3.92;;
63818;SDS011;49970;54.976;73.248;2023-04-03T08:56:35;18.83;;;4.18;;
63818;SDS011;49970;54.976;73.248;2023-04-03T08:59:05;14.50;;;4.22;;
63818;SDS011;49970;54.976;73.248;2023-04-03T09:01:40;18.70;;;3.22;;
63818;SDS011;49970;54.976;73.248;2023-04-03T09:04:11;36.45;;;4.13;;
63818;SDS011;49970;54.976;73.248;2023-04-03T09:06:40;7.75;;;2.75;;
63818;SDS011;49970;54.976;73.248;2023-04-03T09:11:51;37.13;;;4.20;;
63818;SDS011;49970;54.976;73.248;2023-04-03T09:14:38;34.05;;;3.20;;
63818;SDS011;49970;54.976;73.248;2023-04-03T09:17:14;24.90;;;3.88;;
63818;SDS011;49970;54.976;73.248;2023-04-03T09:19:52;11.20;;;3.42;;
63818;SDS011;49970;54.976;73.248;2023-04-03T09:22:25;10.55;;;2.72;;
63818;SDS011;49970;54.976;73.248;2023-04-03T09:25:08;29.65;;;3.63;;
63818;SDS011;49970;54.976;73.248;2023-04-03T09:27:41;24.40;;;4.03;;
63818;SDS011;49970;54.976;73.248;2023-04-03T09:30:17;13.30;;;3.40;;
63818;SDS011;49970;54.976;73.248;2023-04-03T09:32:50;21.70;;;3.45;;
63818;SDS011;49970;54.976;73.248;2023-04-03T09:38:14;20.58;;;4.03;;
63818;SDS011;49970;54.976;73.248;2023-04-03T09:40:46;10.23;;;3.50;;
63818;SDS011;49970;54.976;73.248;2023-04-03T09:43:25;7.53;;;3.40;;
63818;SDS011;49970;54.976;73.248;2023-04-03T09:45:54;21.80;;;3.28;;
63818;SDS011;49970;54.976;73.248;2023-04-03T09:48:25;31.60;;;4.93;;
63818;SDS011;49970;54.976;73.248;2023-04-03T09:50:55;20.70;;;3.65;;
63818;SDS011;49970;54.976;73.248;2023-04-03T09:53:42;12.52;;;3.83;;
63818;SDS011;49970;54.976;73.248;2023-04-03T09:56:18;13.37;;;3.30;;
63818;SDS011;49970;54.976;73.248;2023-04-03T09:58:48;8.60;;;2.80;;
63818;SDS011;49970;54.976;73.248;2023-04-03T10:06:45;7.10;;;2.92;;
63818;SDS011;49970;54.976;73.248;2023-04-03T10:09:19;13.23;;;3.70;;
63818;SDS011;49970;54.976;73.248;2023-04-03T10:12:04;15.88;;;3.40;;
63818;SDS011;49970;54.976;73.248;2023-04-03T10:14:34;14.27;;;3.35;;
63818;SDS011;49970;54.976;73.248;2023-04-03T10:22:18;23.27;;;3.15;;
63818;SDS011;49970;54.976;73.248;2023-04-03T10:24:52;38.28;;;4.88;;
63818;SDS011;49970;54.976;73.248;2023-04-03T10:27:56;11.68;;;3.60;;
63818;SDS011;49970;54.976;73.248;2023-04-03T10:33:08;7.07;;;3.47;;
63818;SDS011;49970;54.976;73.248;2023-04-03T10:41:12;10.02;;;3.17;;
63818;SDS011;49970;54.976;73.248;2023-04-03T10:46:49;10.35;;;3.58;;
63818;SDS011;49970;54.976;73.248;2023-04-03T10:50:31;22.15;;;4.00;;
63818;SDS011;49970;54.976;73.248;2023-04-03T10:58:33;5.35;;;3.58;;
63818;SDS011;49970;54.976;73.248;2023-04-03T11:01:19;38.65;;;5.18;;
63818;SDS011;49970;54.976;73.248;2023-04-03T11:04:00;19.15;;;3.85;;
63818;SDS011;49970;54.976;73.248;2023-04-03T11:06:36;11.20;;;4.07;;
63818;SDS011;49970;54.976;73.248;2023-04-03T11:09:26;10.55;;;3.90;;
63818;SDS011;49970;54.976;73.248;2023-04-03T11:12:03;9.10;;;3.70;;
63818;SDS011;49970;54.976;73.248;2023-04-03T11:14:36;94.03;;;7.47;;
63818;SDS011;49970;54.976;73.248;2023-04-03T11:19:35;27.50;;;4.53;;
63818;SDS011;49970;54.976;73.248;2023-04-03T11:24:55;25.05;;;4.40;;
63818;SDS011;49970;54.976;73.248;2023-04-03T11:27:29;12.45;;;4.55;;
63818;SDS011;49970;54.976;73.248;2023-04-03T11:30:00;11.65;;;4.53;;
63818;SDS011;49970;54.976;73.248;2023-04-03T11:35:27;28.60;;;5.60;;
63818;SDS011;49970;54.976;73.248;2023-04-03T11:37:55;23.17;;;4.55;;
63818;SDS011;49970;54.976;73.248;2023-04-03T11:40:24;17.92;;;5.05;;
63818;SDS011;49970;54.976;73.248;2023-04-03T11:43:02;16.77;;;4.72;;
63818;SDS011;49970;54.976;73.248;2023-04-03T11:50:45;19.23;;;4.38;;
63818;SDS011;49970;54.976;73.248;2023-04-03T11:55:43;21.52;;;3.92;;
63818;SDS011;49970;54.976;73.248;2023-04-03T11:58:30;7.07;;;4.25;;
63818;SDS011;49970;54.976;73.248;2023-04-03T12:01:03;34.22;;;4.20;;
63818;SDS011;49970;54.976;73.248;2023-04-03T12:03:56;27.17;;;4.70;;
63818;SDS011;49970;54.976;73.248;2023-04-03T12:08:59;17.98;;;3.53;;
63818;SDS011;49970;54.976;73.248;2023-04-03T12:11:26;20.23;;;4.32;;
63818;SDS011;49970;54.976;73.248;2023-04-03T12:19:35;20.67;;;5.65;;
63818;SDS011;49970;54.976;73.248;2023-04-03T12:22:07;41.90;;;5.15;;
63818;SDS011;49970;54.976;73.248;2023-04-03T12:24:37;19.55;;;5.10;;
63818;SDS011;49970;54.976;73.248;2023-04-03T12:32:36;15.57;;;6.20;;
63818;SDS011;49970;54.976;73.248;2023-04-03T12:35:24;26.92;;;5.38;;
63818;SDS011;49970;54.976;73.248;2023-04-03T12:44:42;11.02;;;5.10;;
63818;SDS011;49970;54.976;73.248;2023-04-03T12:47:24;12.85;;;5.40;;
63818;SDS011;49970;54.976;73.248;2023-04-03T12:49:58;24.50;;;4.95;;
63818;SDS011;49970;54.976;73.248;2023-04-03T12:52:32;24.67;;;4.20;;
63818;SDS011;49970;54.976;73.248;2023-04-03T12:55:26;20.77;;;3.88;;
63818;SDS011;49970;54.976;73.248;2023-04-03T12:57:52;11.48;;;3.67;;
63818;SDS011;49970;54.976;73.248;2023-04-03T13:00:19;12.60;;;3.88;;
63818;SDS011;49970;54.976;73.248;2023-04-03T13:02:59;14.98;;;5.30;;
63818;SDS011;49970;54.976;73.248;2023-04-03T13:05:28;15.93;;;4.63;;
63818;SDS011;49970;54.976;73.248;2023-04-03T13:08:07;9.27;;;4.47;;
63818;SDS011;49970;54.976;73.248;2023-04-03T13:13:43;17.80;;;4.55;;
63818;SDS011;49970;54.976;73.248;2023-04-03T13:16:32;14.20;;;4.20;;
63818;SDS011;49970;54.976;73.248;2023-04-03T13:18:59;12.02;;;3.40;;
63818;SDS011;49970;54.976;73.248;2023-04-03T13:21:26;14.32;;;3.85;;
63818;SDS011;49970;54.976;73.248;2023-04-03T13:23:55;14.60;;;3.47;;
63818;SDS011;49970;54.976;73.248;2023-04-03T13:26:29;12.63;;;4.35;;
63818;SDS011;49970;54.976;73.248;2023-04-03T13:29:04;21.85;;;4.55;;
63818;SDS011;49970;54.976;73.248;2023-04-03T13:31:36;18.58;;;5.30;;
63818;SDS011;49970;54.976;73.248;2023-04-03T13:36:42;16.33;;;6.07;;
63818;SDS011;49970;54.976;73.248;2023-04-03T13:41:44;56.10;;;25.13;;
63818;SDS011;49970;54.976;73.248;2023-04-03T13:46:53;24.45;;;9.90;;
63818;SDS011;49970;54.976;73.248;2023-04-03T13:51:56;18.98;;;4.32;;
63818;SDS011;49970;54.976;73.248;2023-04-03T13:54:34;25.17;;;5.43;;
63818;SDS011;49970;54.976;73.248;2023-04-03T13:57:02;18.17;;;5.80;;
63818;SDS011;49970;54.976;73.248;2023-04-03T13:59:39;26.00;;;6.63;;
63818;SDS011;49970;54.976;73.248;2023-04-03T14:02:12;30.17;;;9.07;;
63818;SDS011;49970;54.976;73.248;2023-04-03T14:07:11;29.10;;;10.88;;
63818;SDS011;49970;54.976;73.248;2023-04-03T14:09:38;28.00;;;12.13;;
63818;SDS011;49970;54.976;73.248;2023-04-03T14:12:42;24.20;;;13.38;;
63818;SDS011;49970;54.976;73.248;2023-04-03T14:15:06;47.78;;;12.85;;
63818;SDS011;49970;54.976;73.248;2023-04-03T14:17:49;35.45;;;15.27;;
63818;SDS011;49970;54.976;73.248;2023-04-03T14:20:27;42.75;;;16.25;;
63818;SDS011;49970;54.976;73.248;2023-04-03T14:22:58;36.72;;;16.40;;
63818;SDS011;49970;54.976;73.248;2023-04-03T14:25:24;59.22;;;18.77;;
63818;SDS011;49970;54.976;73.248;2023-04-03T14:27:51;43.20;;;17.65;;
63818;SDS011;49970;54.976;73.248;2023-04-03T14:30:23;52.13;;;16.30;;
63818;SDS011;49970;54.976;73.248;2023-04-03T14:32:54;48.25;;;17.52;;
63818;SDS011;49970;54.976;73.248;2023-04-03T14:35:22;54.05;;;17.92;;
63818;SDS011;49970;54.976;73.248;2023-04-03T14:37:49;36.92;;;17.85;;
63818;SDS011;49970;54.976;73.248;2023-04-03T14:40:18;37.58;;;17.33;;
63818;SDS011;49970;54.976;73.248;2023-04-03T14:42:56;50.05;;;18.85;;
63818;SDS011;49970;54.976;73.248;2023-04-03T14:45:33;42.28;;;18.63;;
63818;SDS011;49970;54.976;73.248;2023-04-03T14:48:00;58.90;;;19.10;;
63818;SDS011;49970;54.976;73.248;2023-04-03T14:50:26;56.13;;;16.48;;
63818;SDS011;49970;54.976;73.248;2023-04-03T14:52:54;57.80;;;17.35;;
63818;SDS011;49970;54.976;73.248;2023-04-03T14:55:24;39.15;;;16.15;;
63818;SDS011;49970;54.976;73.248;2023-04-03T14:58:01;37.95;;;16.42;;
63818;SDS011;49970;54.976;73.248;2023-04-03T15:00:27;41.70;;;16.95;;
63818;SDS011;49970;54.976;73.248;2023-04-03T15:02:58;87.20;;;32.70;;
63818;SDS011;49970;54.976;73.248;2023-04-03T15:05:29;46.85;;;22.13;;
63818;SDS011;49970;54.976;73.248;2023-04-03T15:07:56;77.38;;;25.38;;
63818;SDS011;49970;54.976;73.248;2023-04-03T15:10:26;51.92;;;23.35;;
63818;SDS011;49970;54.976;73.248;2023-04-03T15:12:54;65.25;;;24.08;;
63818;SDS011;49970;54.976;73.248;2023-04-03T15:15:22;154.32;;;56.67;;
63818;SDS011;49970;54.976;73.248;2023-04-03T15:17:59;92.88;;;32.65;;
63818;SDS011;49970;54.976;73.248;2023-04-03T15:20:27;108.45;;;42.65;;
63818;SDS011;49970;54.976;73.248;2023-04-03T15:23:06;106.97;;;38.13;;
63818;SDS011;49970;54.976;73.248;2023-04-03T15:25:37;104.50;;;41.40;;
63818;SDS011;49970;54.976;73.248;2023-04-03T15:28:03;109.97;;;43.08;;
63818;SDS011;49970;54.976;73.248;2023-04-03T15:30:30;143.27;;;55.30;;
63818;SDS011;49970;54.976;73.248;2023-04-03T15:32:56;129.20;;;52.53;;
63818;SDS011;49970;54.976;73.248;2023-04-03T15:35:23;138.68;;;59.78;;
63818;SDS011;49970;54.976;73.248;2023-04-03T15:37:49;146.23;;;59.03;;
63818;SDS011;49970;54.976;73.248;2023-04-03T15:40:16;138.93;;;59.40;;
63818;SDS011;49970;54.976;73.248;2023-04-03T15:44:09;150.68;;;61.05;;
63818;SDS011;49970;54.976;73.248;2023-04-03T15:48:00;148.02;;;58.22;;
63818;SDS011;49970;54.976;73.248;2023-04-03T15:52:16;157.63;;;59.17;;
63818;SDS011;49970;54.976;73.248;2023-04-03T15:56:07;142.95;;;59.30;;
63818;SDS011;49970;54.976;73.248;2023-04-03T15:59:58;159.88;;;59.28;;
63818;SDS011;49970;54.976;73.248;2023-04-03T16:03:50;151.63;;;58.65;;
63818;SDS011;49970;54.976;73.248;2023-04-03T16:07:42;128.77;;;55.55;;
63818;SDS011;49970;54.976;73.248;2023-04-03T16:10:09;141.00;;;57.10;;
63818;SDS011;49970;54.976;73.248;2023-04-03T16:12:36;142.30;;;59.00;;
63818;SDS011;49970;54.976;73.248;2023-04-03T16:15:08;149.98;;;58.85;;
63818;SDS011;49970;54.976;73.248;2023-04-03T16:17:35;151.65;;;56.03;;
63818;SDS011;49970;54.976;73.248;2023-04-03T16:20:08;137.33;;;56.27;;
63818;SDS011;49970;54.976;73.248;2023-04-03T16:22:45;137.98;;;58.15;;
63818;SDS011;49970;54.976;73.248;2023-04-03T16:25:12;133.00;;;55.85;;
63818;SDS011;49970;54.976;73.248;2023-04-03T16:27:38;136.20;;;57.40;;
63818;SDS011;49970;54.976;73.248;2023-04-03T16:30:06;130.88;;;51.67;;